Linden, TN

11:05 PM CST on November 23, 2014 (GMT -0600)
Cane Creek | Change Station
CLOSE
Current Station
Personal Weather Station
Location: Centerville, TN
Elevation: 499 ft
Nearby Weather Stations
Active Advisory: Wind Advisory

Elev 499 ft 35.70 °N, 87.74 °W | Updated 11 seconds ago

Overcast
Overcast
62.8 °F
Feels Like 62.8 °F
N
4.3
Wind Variable Wind from SSW
Gusts 7.4 mph

Today
High -- | Low -- °F
--% Chance of Precip.
Yesterday
High -- | Low -- °F
Precip. -- in
6:34 AM 4:40 PM
Waxing Crescent, 3% visible
Pressure 29.51 in
Visibility 8.0 miles
Clouds Few 2000 ft
Mostly Cloudy 5500 ft
Dew Point 59 °F
Humidity 88%
Rainfall 0.58 in
Snow Depth Not available.
UV 0 out of 12
Pollen .30 out of 12
Air Quality Not available.
Flu Activity Not available.
METAR KMRC 240455Z AUTO 20013KT 8SM FEW020 BKN055 16/16 A2951 RMK

More Conditions Fewer Conditions

Pressure 29.51 in
Visibility 8.0 miles
Clouds Few 2000 ft
Mostly Cloudy 5500 ft
Dew Point 59 °F
Humidity 88%
Rainfall 0.58 in
Snow Depth Not available.
UV 0 out of 12
Pollen .30 out of 12
Air Quality Not available.
Flu Activity Not available.
METAR KMRC 240455Z AUTO 20013KT 8SM FEW020 BKN055 16/16 A2951 RMK

More Conditions Fewer Conditions

10-Day Weather Forecast

Almanac

Astronomy

Nov. 23, 2014 Rise Set
Actual Time
Civil Twilight
Nautical Twilight
Astronomical Twilight
Moon
Length of Visible Light
Length of Day
Tomorrow will be .
, % of the Moon is Illuminated

Today's Extremes

State Highs State Lows

Community

WunderPhotos

Upload Photos

1,773,269 photos uploaded!

WunderBlogs® & News

Nearby

Air Quality

  Air Quality AQ Index Pollutant
Not available.

Snow Depth

Station Depth Elevation

Earthquake Activity

City Distance Mag. Time & Date
Minimum magnitude displayed is 2.5.

Coastal Water Temperatures

Place Temperature

Nearby Weather Stations